Time,TemperatureF,DewpointF,PressureIn,WindDirection,WindDirectionDegrees,WindSpeedMPH,WindSpeedGustMPH,Humidity,HourlyPrecipIn,Conditions,Clouds,dailyrainin,SolarRadiationWatts/m^2,SoftwareType,DateUTC
2013-02-02 00:11:00,29.0,25.0,-100.00,NW,318,5.0,7.0,86,0.00,,,0.00,0.000000,,2013-02-02 08:11:00,
2013-02-02 00:21:00,29.0,25.0,-100.00,NW,318,5.0,7.0,86,0.00,,,0.00,0.000000,,2013-02-02 08:21:00,
2013-02-02 00:31:00,29.0,25.0,-100.00,NW,318,5.0,7.0,86,0.00,,,0.00,0.000000,,2013-02-02 08:31:00,
2013-02-02 00:41:00,29.0,25.0,-100.00,NW,318,5.0,7.0,86,0.00,,,0.00,0.000000,,2013-02-02 08:41:00,
2013-02-02 01:11:00,30.0,27.0,-100.00,NNW,345,5.0,7.0,88,0.00,,,0.00,0.000000,,2013-02-02 09:11:00,
2013-02-02 01:22:00,30.0,27.0,-100.00,NNW,345,5.0,7.0,88,0.00,,,0.00,0.000000,,2013-02-02 09:22:00,
2013-02-02 01:31:00,30.0,27.0,-100.00,NNW,345,5.0,7.0,88,0.00,,,0.00,0.000000,,2013-02-02 09:31:00,
2013-02-02 01:41:00,30.0,27.0,-100.00,NNW,345,5.0,7.0,88,0.00,,,0.00,0.000000,,2013-02-02 09:41:00,
2013-02-02 02:11:00,28.0,24.0,-100.00,North,352,6.0,9.0,85,0.00,,,0.00,0.000000,,2013-02-02 10:11:00,
2013-02-02 02:21:00,28.0,24.0,-100.00,North,352,6.0,9.0,85,0.00,,,0.00,0.000000,,2013-02-02 10:21:00,
2013-02-02 02:31:00,28.0,24.0,-100.00,North,352,6.0,9.0,85,0.00,,,0.00,0.000000,,2013-02-02 10:31:00,
2013-02-02 02:41:00,28.0,24.0,-100.00,North,352,6.0,9.0,85,0.00,,,0.00,0.000000,,2013-02-02 10:41:00,
2013-02-02 03:11:00,28.0,25.0,-100.00,North,8,4.0,6.0,87,0.00,,,0.00,0.000000,,2013-02-02 11:11:00,
2013-02-02 03:21:00,28.0,25.0,-100.00,North,8,4.0,6.0,87,0.00,,,0.00,0.000000,,2013-02-02 11:21:00,
2013-02-02 03:31:00,28.0,25.0,-100.00,North,8,4.0,6.0,87,0.00,,,0.00,0.000000,,2013-02-02 11:31:00,
2013-02-02 03:41:00,28.0,25.0,-100.00,North,8,4.0,6.0,87,0.00,,,0.00,0.000000,,2013-02-02 11:41:00,
2013-02-02 04:11:00,28.0,25.0,-100.00,NNW,330,5.0,6.0,88,0.00,,,0.00,0.000000,,2013-02-02 12:11:00,
2013-02-02 04:22:00,28.0,25.0,-100.00,NNW,330,5.0,6.0,88,0.00,,,0.00,0.000000,,2013-02-02 12:22:00,
2013-02-02 04:32:00,28.0,25.0,-100.00,NNW,330,5.0,6.0,88,0.00,,,0.00,0.000000,,2013-02-02 12:32:00,
2013-02-02 04:42:00,28.0,25.0,-100.00,NNW,330,5.0,6.0,88,0.00,,,0.00,0.000000,,2013-02-02 12:42:00,
2013-02-02 05:11:00,29.0,26.0,-100.00,North,354,2.0,6.0,88,-99.99,,,0.00,0.000000,,2013-02-02 13:11:00,
2013-02-02 05:21:00,29.0,26.0,-100.00,North,354,2.0,6.0,88,-99.99,,,0.00,0.000000,,2013-02-02 13:21:00,
2013-02-02 06:11:00,25.0,23.0,-100.00,North,9,4.0,6.0,91,0.00,,,0.00,0.000000,,2013-02-02 14:11:00,
2013-02-02 06:22:00,25.0,23.0,-100.00,North,9,4.0,6.0,91,0.00,,,0.00,0.000000,,2013-02-02 14:22:00,
2013-02-02 06:32:00,25.0,23.0,-100.00,North,9,4.0,6.0,91,0.00,,,0.00,0.000000,,2013-02-02 14:32:00,
2013-02-02 06:42:00,25.0,23.0,-100.00,North,9,4.0,6.0,91,0.00,,,0.00,0.000000,,2013-02-02 14:42:00,
2013-02-02 07:12:00,25.0,23.0,-100.00,NNE,25,4.0,6.0,91,0.00,,,0.00,0.000000,,2013-02-02 15:12:00,
2013-02-02 07:21:00,25.0,23.0,-100.00,NNE,25,4.0,6.0,91,0.00,,,0.00,0.000000,,2013-02-02 15:21:00,
2013-02-02 07:32:00,25.0,23.0,-100.00,NNE,25,4.0,6.0,91,0.00,,,0.00,0.000000,,2013-02-02 15:32:00,
2013-02-02 07:42:00,25.0,23.0,-100.00,NNE,25,4.0,6.0,91,0.00,,,0.00,0.000000,,2013-02-02 15:42:00,
2013-02-02 08:11:00,22.0,20.0,-100.00,NNE,19,5.0,8.0,91,0.00,,,0.00,0.000000,,2013-02-02 16:11:00,
2013-02-02 08:22:00,22.0,20.0,-100.00,NNE,19,5.0,8.0,91,0.00,,,0.00,0.000000,,2013-02-02 16:22:00,
2013-02-02 08:31:00,22.0,20.0,-100.00,NNE,19,5.0,8.0,91,0.00,,,0.00,0.000000,,2013-02-02 16:31:00,
2013-02-02 08:42:00,22.0,20.0,-100.00,NNE,19,5.0,8.0,91,0.00,,,0.00,0.000000,,2013-02-02 16:42:00,
2013-02-02 09:11:00,24.0,21.0,-100.00,North,5,4.0,7.0,87,0.00,,,0.00,61.000000,,2013-02-02 17:11:00,
2013-02-02 09:22:00,24.0,21.0,-100.00,North,5,4.0,7.0,87,0.00,,,0.00,61.000000,,2013-02-02 17:22:00,
2013-02-02 09:32:00,24.0,21.0,-100.00,North,5,4.0,7.0,87,0.00,,,0.00,61.000000,,2013-02-02 17:32:00,
2013-02-02 09:41:00,24.0,21.0,-100.00,North,5,4.0,7.0,87,0.00,,,0.00,61.000000,,2013-02-02 17:41:00,
2013-02-02 10:12:00,29.0,25.0,-100.00,NNE,17,5.0,6.0,83,0.00,,,0.00,191.000000,,2013-02-02 18:12:00,
2013-02-02 10:22:00,29.0,25.0,-100.00,NNE,17,5.0,6.0,83,0.00,,,0.00,191.000000,,2013-02-02 18:22:00,
2013-02-02 10:31:00,29.0,25.0,-100.00,NNE,17,5.0,6.0,83,0.00,,,0.00,191.000000,,2013-02-02 18:31:00,
2013-02-02 10:41:00,29.0,25.0,-100.00,NNE,17,5.0,6.0,83,0.00,,,0.00,191.000000,,2013-02-02 18:41:00,
2013-02-02 11:11:00,33.0,27.0,-100.00,NE,48,5.0,7.0,79,0.00,,,0.00,323.000000,,2013-02-02 19:11:00,
2013-02-02 11:21:00,33.0,27.0,-100.00,NE,48,5.0,7.0,79,0.00,,,0.00,323.000000,,2013-02-02 19:21:00,
2013-02-02 11:32:00,33.0,27.0,-100.00,NE,48,5.0,7.0,79,0.00,,,0.00,323.000000,,2013-02-02 19:32:00,
2013-02-02 11:41:00,33.0,27.0,-100.00,NE,48,5.0,7.0,79,0.00,,,0.00,323.000000,,2013-02-02 19:41:00,
2013-02-02 12:11:00,36.0,30.0,-100.00,ENE,67,4.0,7.0,80,-99.99,,,0.00,396.000000,,2013-02-02 20:11:00,
2013-02-02 12:21:00,36.0,30.0,-100.00,ENE,67,4.0,7.0,80,-99.99,,,0.00,396.000000,,2013-02-02 20:21:00,
2013-02-02 13:11:00,37.0,31.0,-100.00,ENE,69,3.0,6.0,79,0.00,,,0.00,418.000000,,2013-02-02 21:11:00,
2013-02-02 13:21:00,37.0,31.0,-100.00,ENE,69,3.0,6.0,79,0.00,,,0.00,418.000000,,2013-02-02 21:21:00,
2013-02-02 14:11:00,37.0,31.0,-100.00,ENE,66,3.0,5.0,80,0.00,,,0.00,381.000000,,2013-02-02 22:11:00,
2013-02-02 14:21:00,37.0,31.0,-100.00,ENE,66,3.0,5.0,80,0.00,,,0.00,381.000000,,2013-02-02 22:21:00,
2013-02-02 14:32:00,37.0,31.0,-100.00,ENE,66,3.0,5.0,80,0.00,,,0.00,381.000000,,2013-02-02 22:32:00,
2013-02-02 14:41:00,37.0,31.0,-100.00,ENE,66,3.0,5.0,80,0.00,,,0.00,381.000000,,2013-02-02 22:41:00,
2013-02-02 15:11:00,37.0,31.0,-100.00,ENE,69,0.0,4.0,79,0.00,,,0.00,293.000000,,2013-02-02 23:11:00,
2013-02-02 15:21:00,37.0,31.0,-100.00,ENE,69,0.0,4.0,79,0.00,,,0.00,293.000000,,2013-02-02 23:21:00,
2013-02-02 15:32:00,37.0,31.0,-100.00,ENE,69,0.0,4.0,79,0.00,,,0.00,293.000000,,2013-02-02 23:32:00,
2013-02-02 16:11:00,33.0,29.0,-100.00,NE,55,3.0,7.0,85,0.00,,,0.00,177.000000,,2013-02-03 00:11:00,
2013-02-02 16:21:00,33.0,29.0,-100.00,NE,55,3.0,7.0,85,0.00,,,0.00,177.000000,,2013-02-03 00:21:00,
2013-02-02 16:31:00,33.0,29.0,-100.00,NE,55,3.0,7.0,85,0.00,,,0.00,177.000000,,2013-02-03 00:31:00,
2013-02-02 16:41:00,33.0,29.0,-100.00,NE,55,3.0,7.0,85,0.00,,,0.00,177.000000,,2013-02-03 00:41:00,
2013-02-02 17:11:00,30.0,28.0,-100.00,ENE,73,4.0,5.0,93,0.00,,,0.00,24.000000,,2013-02-03 01:11:00,
2013-02-02 17:21:00,30.0,28.0,-100.00,ENE,73,4.0,5.0,93,0.00,,,0.00,24.000000,,2013-02-03 01:21:00,
2013-02-02 17:32:00,30.0,28.0,-100.00,ENE,73,4.0,5.0,93,0.00,,,0.00,24.000000,,2013-02-03 01:32:00,
2013-02-02 17:41:00,30.0,28.0,-100.00,ENE,73,4.0,5.0,93,0.00,,,0.00,24.000000,,2013-02-03 01:41:00,
2013-02-02 18:11:00,29.0,28.0,-100.00,NE,53,3.0,6.0,97,0.00,,,0.00,0.000000,,2013-02-03 02:11:00,
2013-02-02 18:21:00,29.0,28.0,-100.00,NE,53,3.0,6.0,97,0.00,,,0.00,0.000000,,2013-02-03 02:21:00,
2013-02-02 18:31:00,29.0,28.0,-100.00,NE,53,3.0,6.0,97,0.00,,,0.00,0.000000,,2013-02-03 02:31:00,
2013-02-02 18:41:00,29.0,28.0,-100.00,NE,53,3.0,6.0,97,0.00,,,0.00,0.000000,,2013-02-03 02:41:00,
2013-02-02 19:11:00,28.0,28.0,-100.00,ENE,75,0.0,6.0,98,0.00,,,0.00,0.000000,,2013-02-03 03:11:00,
2013-02-02 19:21:00,28.0,28.0,-100.00,ENE,75,0.0,6.0,98,0.00,,,0.00,0.000000,,2013-02-03 03:21:00,
2013-02-02 19:31:00,28.0,28.0,-100.00,ENE,75,0.0,6.0,98,0.00,,,0.00,0.000000,,2013-02-03 03:31:00,
2013-02-02 19:41:00,28.0,28.0,-100.00,ENE,75,0.0,6.0,98,0.00,,,0.00,0.000000,,2013-02-03 03:41:00,
2013-02-02 20:11:00,26.0,26.0,-100.00,North,1,3.0,6.0,98,0.00,,,0.00,0.000000,,2013-02-03 04:11:00,
2013-02-02 20:21:00,26.0,26.0,-100.00,North,1,3.0,6.0,98,0.00,,,0.00,0.000000,,2013-02-03 04:21:00,
2013-02-02 20:31:00,26.0,26.0,-100.00,North,1,3.0,6.0,98,0.00,,,0.00,0.000000,,2013-02-03 04:31:00,
2013-02-02 20:42:00,26.0,26.0,-100.00,North,1,3.0,6.0,98,0.00,,,0.00,0.000000,,2013-02-03 04:42:00,
2013-02-02 21:11:00,24.0,23.0,-100.00,NNW,341,5.0,6.0,96,0.00,,,0.00,0.000000,,2013-02-03 05:11:00,
2013-02-02 21:22:00,24.0,23.0,-100.00,NNW,341,5.0,6.0,96,0.00,,,0.00,0.000000,,2013-02-03 05:22:00,
2013-02-02 21:32:00,24.0,23.0,-100.00,NNW,341,5.0,6.0,96,0.00,,,0.00,0.000000,,2013-02-03 05:32:00,
2013-02-02 21:41:00,24.0,23.0,-100.00,NNW,341,5.0,6.0,96,0.00,,,0.00,0.000000,,2013-02-03 05:41:00,
2013-02-02 22:11:00,24.0,23.0,-100.00,NNW,336,3.0,6.0,96,0.00,,,0.00,0.000000,,2013-02-03 06:11:00,
2013-02-02 22:21:00,24.0,23.0,-100.00,NNW,336,3.0,6.0,96,0.00,,,0.00,0.000000,,2013-02-03 06:21:00,
2013-02-02 22:31:00,24.0,23.0,-100.00,NNW,336,3.0,6.0,96,0.00,,,0.00,0.000000,,2013-02-03 06:31:00,
2013-02-02 22:41:00,24.0,23.0,-100.00,NNW,336,3.0,6.0,96,0.00,,,0.00,0.000000,,2013-02-03 06:41:00,
2013-02-02 23:11:00,25.0,24.0,-100.00,North,4,4.0,7.0,95,0.00,,,0.00,0.000000,,2013-02-03 07:11:00,
2013-02-02 23:21:00,25.0,24.0,-100.00,North,4,4.0,7.0,95,0.00,,,0.00,0.000000,,2013-02-03 07:21:00,
2013-02-02 23:31:00,25.0,24.0,-100.00,North,4,4.0,7.0,95,0.00,,,0.00,0.000000,,2013-02-03 07:31:00,
2013-02-02 23:41:00,25.0,24.0,-100.00,North,4,4.0,7.0,95,0.00,,,0.00,0.000000,,2013-02-03 07:41:00,